createdAt,value
2018-07-28T00:00:15.552Z,9.17
2018-07-28T00:02:46.073Z,8.43
2018-07-28T00:05:16.835Z,9.73
2018-07-28T00:07:46.814Z,11.60
2018-07-28T00:10:17.505Z,12.07
2018-07-28T00:12:48.202Z,9.37
2018-07-28T00:15:18.871Z,9.20
2018-07-28T00:17:49.524Z,10.80
2018-07-28T00:20:20.510Z,9.83
2018-07-28T00:22:51.309Z,9.90
2018-07-28T00:25:21.793Z,8.20
2018-07-28T00:27:52.263Z,8.00
2018-07-28T00:30:23.176Z,10.00
2018-07-28T00:32:53.628Z,12.43
2018-07-28T00:35:24.324Z,7.70
2018-07-28T00:37:54.935Z,9.17
2018-07-28T00:40:25.544Z,7.80
2018-07-28T00:42:56.059Z,7.53
2018-07-28T00:45:26.543Z,8.67
2018-07-28T00:47:56.923Z,8.33
2018-07-28T00:50:27.533Z,8.37
2018-07-28T00:52:58.026Z,9.80
2018-07-28T00:55:28.539Z,10.50
2018-07-28T00:57:59.024Z,10.83
2018-07-28T01:00:29.671Z,11.17
2018-07-28T01:03:00.118Z,10.73
2018-07-28T01:05:30.243Z,9.20
2018-07-28T01:08:00.844Z,8.47
2018-07-28T01:10:31.520Z,8.13
2018-07-28T01:13:02.159Z,7.37
2018-07-28T01:15:32.700Z,9.63
2018-07-28T01:18:03.412Z,8.57
2018-07-28T01:20:33.933Z,7.70
2018-07-28T01:23:04.323Z,8.83
2018-07-28T01:25:34.908Z,8.67
2018-07-28T01:28:05.494Z,7.93
2018-07-28T01:30:36.056Z,8.30
2018-07-28T01:33:06.565Z,6.97
2018-07-28T01:35:37.159Z,8.00
2018-07-28T01:38:07.608Z,9.90
2018-07-28T01:40:38.150Z,10.07
2018-07-28T01:43:08.644Z,9.17
2018-07-28T01:45:39.236Z,7.10
2018-07-28T01:48:09.759Z,7.17
2018-07-28T01:50:40.256Z,9.27
2018-07-28T01:53:10.982Z,6.97
2018-07-28T01:55:41.599Z,7.23
2018-07-28T01:58:12.188Z,9.47
2018-07-28T02:00:42.695Z,9.53
2018-07-28T02:03:13.211Z,8.43
2018-07-28T02:05:43.657Z,9.87
2018-07-28T02:08:14.119Z,9.03
2018-07-28T02:10:44.832Z,7.67
2018-07-28T02:13:15.295Z,8.57
2018-07-28T02:15:45.882Z,10.10
2018-07-28T02:18:16.758Z,9.17
2018-07-28T02:20:46.935Z,10.43
2018-07-28T02:23:17.714Z,7.93
2018-07-28T02:25:48.284Z,8.67
2018-07-28T02:28:18.720Z,8.30
2018-07-28T02:30:49.493Z,9.67
2018-07-28T02:33:20.275Z,8.27
2018-07-28T02:35:50.896Z,8.60
2018-07-28T02:38:21.392Z,9.70
2018-07-28T02:40:52.084Z,11.20
2018-07-28T02:43:22.572Z,9.13
2018-07-28T02:45:53.195Z,9.23
2018-07-28T02:48:23.960Z,9.10
2018-07-28T02:50:54.915Z,9.03
2018-07-28T02:53:25.510Z,7.93
2018-07-28T02:55:56.228Z,8.77
2018-07-28T02:58:26.793Z,9.80
2018-07-28T03:00:57.300Z,8.73
2018-07-28T03:03:27.700Z,8.97
2018-07-28T03:05:58.292Z,9.57
2018-07-28T03:08:28.731Z,8.97
2018-07-28T03:10:59.396Z,8.37
2018-07-28T03:13:29.863Z,13.30
2018-07-28T03:16:00.293Z,8.43
2018-07-28T03:18:31.188Z,9.90
2018-07-28T03:21:01.772Z,12.33
2018-07-28T03:23:32.434Z,8.20
2018-07-28T03:26:03.120Z,9.83
2018-07-28T03:28:33.753Z,8.80
2018-07-28T03:31:04.433Z,9.13
2018-07-28T03:33:34.971Z,8.80
2018-07-28T03:36:05.795Z,8.47
2018-07-28T03:38:36.450Z,10.67
2018-07-28T03:41:07.407Z,10.37
2018-07-28T03:43:38.056Z,12.27
2018-07-28T03:46:08.892Z,11.77
2018-07-28T03:48:39.391Z,10.37
2018-07-28T03:51:10.056Z,10.30
2018-07-28T03:53:40.681Z,8.40
2018-07-28T03:56:11.002Z,12.33
2018-07-28T03:58:41.491Z,10.10
2018-07-28T04:01:12.029Z,11.43
2018-07-28T04:03:42.620Z,13.63
2018-07-28T04:06:13.232Z,12.70
2018-07-28T04:08:43.859Z,11.57
2018-07-28T04:11:14.424Z,10.77
2018-07-28T04:13:45.016Z,13.10
2018-07-28T04:16:15.648Z,9.27
2018-07-28T04:18:46.530Z,10.67
2018-07-28T04:21:17.296Z,12.30
2018-07-28T04:23:47.984Z,8.50
2018-07-28T04:26:18.429Z,9.43
2018-07-28T04:28:48.869Z,9.73
2018-07-28T04:31:19.482Z,10.57
2018-07-28T04:33:50.039Z,9.67
2018-07-28T04:36:20.523Z,9.93
2018-07-28T04:38:51.045Z,9.73
2018-07-28T04:41:21.548Z,10.63
2018-07-28T04:43:52.121Z,10.13
2018-07-28T04:46:22.547Z,10.40
2018-07-28T04:48:52.971Z,10.13
2018-07-28T04:51:23.712Z,9.70
2018-07-28T04:53:54.200Z,9.50
2018-07-28T04:56:25.143Z,8.53
2018-07-28T04:58:55.796Z,9.83
2018-07-28T05:01:26.484Z,9.30
2018-07-28T05:03:57.268Z,11.93
2018-07-28T05:06:27.745Z,7.80
2018-07-28T05:08:58.327Z,8.50
2018-07-28T05:11:28.869Z,8.83
2018-07-28T05:13:59.416Z,10.43
2018-07-28T05:16:29.832Z,8.87
2018-07-28T05:19:00.276Z,7.97
2018-07-28T05:21:30.904Z,12.97
2018-07-28T05:24:01.520Z,8.30
2018-07-28T05:26:32.062Z,10.23
2018-07-28T05:29:02.527Z,9.57
2018-07-28T05:31:32.963Z,10.27
2018-07-28T05:34:03.427Z,15.00
2018-07-28T05:36:34.064Z,17.47
2018-07-28T05:39:06.967Z,11.80
2018-07-28T05:41:37.706Z,10.80
2018-07-28T05:44:08.407Z,9.93
2018-07-28T05:46:39.079Z,10.33
2018-07-28T05:49:09.604Z,8.97
2018-07-28T05:51:40.143Z,10.23
2018-07-28T05:54:10.828Z,11.60
2018-07-28T05:56:41.279Z,8.30
2018-07-28T05:59:11.722Z,7.90
2018-07-28T06:01:42.440Z,10.80
2018-07-28T06:04:13.118Z,9.47
2018-07-28T06:06:43.653Z,8.80
2018-07-28T06:09:13.627Z,8.43
2018-07-28T06:11:44.307Z,9.53
2018-07-28T06:14:14.768Z,10.43
2018-07-28T06:16:45.282Z,8.83
2018-07-28T06:19:15.704Z,8.80
2018-07-28T06:21:46.187Z,9.80
2018-07-28T06:24:16.657Z,9.30
2018-07-28T06:26:47.196Z,10.30
2018-07-28T06:29:17.776Z,8.28
2018-07-28T06:31:48.592Z,9.35
2018-07-28T06:34:19.123Z,9.00
2018-07-28T06:36:49.737Z,7.97
2018-07-28T06:39:19.959Z,8.25
2018-07-28T06:41:50.444Z,9.53
2018-07-28T06:44:20.746Z,11.43
2018-07-28T06:46:51.290Z,10.73
2018-07-28T06:49:21.928Z,9.57
2018-07-28T06:51:52.711Z,12.97
2018-07-28T06:54:22.610Z,9.07
2018-07-28T06:56:53.366Z,10.00
2018-07-28T06:59:23.877Z,9.20
2018-07-28T07:01:54.676Z,8.90
2018-07-28T07:04:25.228Z,9.43
2018-07-28T07:06:55.808Z,9.43
2018-07-28T07:09:26.402Z,11.10
2018-07-28T07:11:56.818Z,9.37
2018-07-28T07:14:27.474Z,9.33
2018-07-28T07:16:57.939Z,11.43
2018-07-28T07:19:28.432Z,10.40
2018-07-28T07:21:59.229Z,9.90
2018-07-28T07:24:29.788Z,10.70
2018-07-28T07:27:00.401Z,8.50
2018-07-28T07:29:30.814Z,11.63
2018-07-28T07:32:01.217Z,9.17
2018-07-28T07:34:31.685Z,10.00
2018-07-28T07:37:02.309Z,11.03
2018-07-28T07:39:32.803Z,12.63
2018-07-28T07:42:03.264Z,10.07
2018-07-28T07:44:33.834Z,9.33
2018-07-28T07:47:04.308Z,8.90
2018-07-28T07:49:34.687Z,9.97
2018-07-28T07:52:05.781Z,9.00
2018-07-28T07:54:36.451Z,10.37
2018-07-28T07:57:08.006Z,7.83
2018-07-28T07:59:38.527Z,11.87
2018-07-28T08:02:09.183Z,8.80
2018-07-28T08:04:39.923Z,8.47
2018-07-28T08:07:10.371Z,9.67
2018-07-28T08:09:40.764Z,7.13
2018-07-28T08:12:11.231Z,9.40
2018-07-28T08:14:41.798Z,8.37
2018-07-28T08:17:11.759Z,8.27
2018-07-28T08:19:42.396Z,7.90
2018-07-28T08:22:12.928Z,10.03
2018-07-28T08:24:43.488Z,8.87
2018-07-28T08:27:13.957Z,9.60
2018-07-28T08:29:44.539Z,8.50
2018-07-28T08:32:15.075Z,9.13
2018-07-28T08:34:45.719Z,8.50
2018-07-28T08:37:16.275Z,8.63
2018-07-28T08:39:47.261Z,10.53
2018-07-28T08:42:17.853Z,9.60
2018-07-28T08:44:48.579Z,9.83
2018-07-28T08:47:19.217Z,9.07
2018-07-28T08:49:49.836Z,9.47
2018-07-28T08:52:20.379Z,8.40
2018-07-28T08:54:50.935Z,10.57
2018-07-28T08:57:21.499Z,8.80
2018-07-28T08:59:51.955Z,6.93
2018-07-28T09:02:22.080Z,7.93
2018-07-28T09:04:52.519Z,9.23
2018-07-28T09:07:23.291Z,9.37
2018-07-28T09:09:53.778Z,8.40
2018-07-28T09:12:24.353Z,10.13
2018-07-28T09:14:54.404Z,9.13
2018-07-28T09:17:25.049Z,8.10
2018-07-28T09:19:55.709Z,7.67
2018-07-28T09:22:26.222Z,6.87
2018-07-28T09:24:56.875Z,8.43
2018-07-28T09:27:27.026Z,6.90
2018-07-28T09:29:57.539Z,6.57
2018-07-28T09:32:27.991Z,6.50
2018-07-28T09:34:58.453Z,7.67
2018-07-28T09:37:29.077Z,6.80
2018-07-28T09:39:59.757Z,7.63
2018-07-28T09:42:30.360Z,6.20
2018-07-28T09:45:00.303Z,6.87
2018-07-28T09:47:30.753Z,6.60
2018-07-28T09:50:01.165Z,8.93
2018-07-28T09:52:32.059Z,7.63
2018-07-28T09:55:02.625Z,5.80
2018-07-28T09:57:33.274Z,6.53
2018-07-28T10:00:03.795Z,8.20
2018-07-28T10:02:34.285Z,5.73
2018-07-28T10:05:04.735Z,6.57
2018-07-28T10:07:35.196Z,6.73
2018-07-28T10:10:05.882Z,5.53
2018-07-28T10:12:36.627Z,7.63
2018-07-28T10:15:07.275Z,6.20
2018-07-28T10:17:37.687Z,6.83
2018-07-28T10:20:08.311Z,4.60
2018-07-28T10:22:38.784Z,5.17
2018-07-28T10:25:09.652Z,6.35
2018-07-28T10:27:40.288Z,5.33
2018-07-28T10:30:10.880Z,5.20
2018-07-28T10:32:41.391Z,5.17
2018-07-28T10:35:12.919Z,6.50
2018-07-28T10:37:43.772Z,4.80
2018-07-28T10:40:14.186Z,5.90
2018-07-28T10:42:44.600Z,4.47
2018-07-28T10:45:15.111Z,6.40
2018-07-28T10:47:45.659Z,4.90
2018-07-28T10:50:15.890Z,5.10
2018-07-28T10:52:46.517Z,4.90
2018-07-28T10:55:19.205Z,6.22
2018-07-28T10:57:53.309Z,6.50
2018-07-28T11:00:27.198Z,5.33
2018-07-28T11:03:11.095Z,6.25
2018-07-28T11:05:41.733Z,5.67
2018-07-28T11:08:12.195Z,5.97
2018-07-28T11:10:42.715Z,5.00
2018-07-28T11:13:13.316Z,5.80
2018-07-28T11:15:43.842Z,5.35
2018-07-28T11:18:14.715Z,5.58
2018-07-28T11:20:45.303Z,6.53
2018-07-28T11:23:31.026Z,5.87
2018-07-28T11:26:01.888Z,7.00
2018-07-28T11:28:32.231Z,8.43
2018-07-28T11:31:02.715Z,6.05
2018-07-28T11:33:49.498Z,6.33
2018-07-28T11:36:36.319Z,6.67
2018-07-28T11:39:23.225Z,6.75
2018-07-28T11:42:10.049Z,7.60
2018-07-28T11:45:00.571Z,6.87
2018-07-28T11:47:31.004Z,6.67
2018-07-28T11:50:01.340Z,7.67
2018-07-28T11:52:31.751Z,6.80
2018-07-28T11:55:02.256Z,6.37
2018-07-28T11:57:32.717Z,9.23
2018-07-28T12:00:03.301Z,7.13
2018-07-28T12:02:33.744Z,7.10
2018-07-28T12:05:04.363Z,8.20
2018-07-28T12:07:34.944Z,6.97
2018-07-28T12:10:07.351Z,8.33
2018-07-28T12:12:37.996Z,8.97
2018-07-28T12:15:08.990Z,7.47
2018-07-28T12:17:39.401Z,7.57
2018-07-28T12:20:10.080Z,6.77
2018-07-28T12:22:40.466Z,7.17
2018-07-28T12:25:11.116Z,8.87
2018-07-28T12:27:41.800Z,8.30
2018-07-28T12:30:12.546Z,7.23
2018-07-28T12:32:43.060Z,6.60
2018-07-28T12:35:13.614Z,7.53
2018-07-28T12:37:44.215Z,9.20
2018-07-28T12:40:14.779Z,9.07
2018-07-28T12:42:45.281Z,7.70
2018-07-28T12:45:15.662Z,6.27
2018-07-28T12:47:46.660Z,6.53
2018-07-28T12:50:17.189Z,7.57
2018-07-28T12:52:47.928Z,7.57
2018-07-28T12:55:18.814Z,6.93
2018-07-28T12:57:49.375Z,6.73
2018-07-28T13:00:19.979Z,6.90
2018-07-28T13:02:50.520Z,7.60
2018-07-28T13:05:20.949Z,7.70
2018-07-28T13:07:51.419Z,6.50
2018-07-28T13:10:21.909Z,7.17
2018-07-28T13:12:52.424Z,7.23
2018-07-28T13:15:22.855Z,7.33
2018-07-28T13:17:53.585Z,7.33
2018-07-28T13:20:23.980Z,8.13
2018-07-28T13:22:54.360Z,7.10
2018-07-28T13:25:25.040Z,7.00
2018-07-28T13:27:55.472Z,7.47
2018-07-28T13:30:25.997Z,6.27
2018-07-28T13:32:56.596Z,8.80
2018-07-28T13:35:27.249Z,6.40
2018-07-28T13:37:57.862Z,6.73
2018-07-28T13:40:28.371Z,6.43
2018-07-28T13:42:58.819Z,6.50
2018-07-28T13:45:29.420Z,6.80
2018-07-28T13:47:59.847Z,7.87
2018-07-28T13:50:30.373Z,6.97
2018-07-28T13:53:01.045Z,7.13
2018-07-28T13:55:31.455Z,8.23
2018-07-28T13:58:02.009Z,6.67
2018-07-28T14:00:32.482Z,7.20
2018-07-28T14:03:02.905Z,8.07
2018-07-28T14:05:33.329Z,6.40
2018-07-28T14:08:03.991Z,6.47
2018-07-28T14:10:34.419Z,7.50
2018-07-28T14:13:05.126Z,6.73
2018-07-28T14:15:35.719Z,10.27
2018-07-28T14:18:06.603Z,5.93
2018-07-28T14:20:37.239Z,6.73
2018-07-28T14:23:07.797Z,7.10
2018-07-28T14:25:38.330Z,7.13
2018-07-28T14:28:08.747Z,8.90
2018-07-28T14:30:39.259Z,9.83
2018-07-28T14:33:09.708Z,8.50
2018-07-28T14:35:40.307Z,7.73
2018-07-28T14:38:11.019Z,7.20
2018-07-28T14:40:41.675Z,8.47
2018-07-28T14:43:12.186Z,9.17
2018-07-28T14:45:42.574Z,7.07
2018-07-28T14:48:13.046Z,7.83
2018-07-28T14:50:43.686Z,7.07
2018-07-28T14:53:14.373Z,7.30
2018-07-28T14:55:44.924Z,6.83
2018-07-28T14:58:15.283Z,7.80
2018-07-28T15:00:45.962Z,7.80
2018-07-28T15:03:16.675Z,7.27
2018-07-28T15:05:47.156Z,8.20
2018-07-28T15:08:17.919Z,7.33
2018-07-28T15:10:48.454Z,7.60
2018-07-28T15:13:19.308Z,7.87
2018-07-28T15:15:50.104Z,7.90
2018-07-28T15:18:20.500Z,7.33
2018-07-28T15:20:51.152Z,8.27
2018-07-28T15:23:21.596Z,9.60
2018-07-28T15:25:52.137Z,8.10
2018-07-28T15:28:22.553Z,8.60
2018-07-28T15:30:54.576Z,7.93
2018-07-28T15:33:24.957Z,9.30
2018-07-28T15:35:55.879Z,7.90
2018-07-28T15:38:26.556Z,9.93
2018-07-28T15:40:57.178Z,9.57
2018-07-28T15:43:27.820Z,7.67
2018-07-28T15:45:58.405Z,10.00
2018-07-28T15:48:28.820Z,7.10
2018-07-28T15:50:59.377Z,9.43
2018-07-28T15:53:29.871Z,6.50
2018-07-28T15:56:00.688Z,7.43
2018-07-28T15:58:31.100Z,7.87
2018-07-28T16:01:01.539Z,11.37
2018-07-28T16:03:31.937Z,7.37
2018-07-28T16:06:02.781Z,8.53
2018-07-28T16:08:33.364Z,7.77
2018-07-28T16:11:04.125Z,7.93
2018-07-28T16:13:34.705Z,7.70
2018-07-28T16:16:05.115Z,8.30
2018-07-28T16:18:35.600Z,7.90
2018-07-28T16:21:06.013Z,7.53
2018-07-28T16:23:36.549Z,8.40
2018-07-28T16:26:07.785Z,8.83
2018-07-28T16:28:38.243Z,9.73
2018-07-28T16:31:08.991Z,6.80
2018-07-28T16:33:39.427Z,6.77
2018-07-28T16:36:09.963Z,7.50
2018-07-28T16:38:40.600Z,7.40
2018-07-28T16:41:11.036Z,6.80
2018-07-28T16:43:41.491Z,6.90
2018-07-28T16:46:11.997Z,7.20
2018-07-28T16:48:42.470Z,6.83
2018-07-28T16:51:12.941Z,8.10
2018-07-28T16:53:43.476Z,7.70
2018-07-28T16:56:14.075Z,7.43
2018-07-28T16:58:44.595Z,7.93
2018-07-28T17:01:15.115Z,8.57
2018-07-28T17:03:45.644Z,8.93
2018-07-28T17:06:16.233Z,8.10
2018-07-28T17:08:46.687Z,7.83
2018-07-28T17:11:17.296Z,8.10
2018-07-28T17:13:47.952Z,6.90
2018-07-28T17:16:18.402Z,7.07
2018-07-28T17:18:49.067Z,7.63
2018-07-28T17:21:19.739Z,8.53
2018-07-28T17:23:50.184Z,8.83
2018-07-28T17:26:20.909Z,9.30
2018-07-28T17:28:51.642Z,7.40
2018-07-28T17:31:22.180Z,8.60
2018-07-28T17:33:52.203Z,8.43
2018-07-28T17:36:22.801Z,8.80
2018-07-28T17:38:53.632Z,7.40
2018-07-28T17:41:24.169Z,9.40
2018-07-28T17:43:54.147Z,8.77
2018-07-28T17:46:24.805Z,7.43
2018-07-28T17:48:55.776Z,7.70
2018-07-28T17:51:26.188Z,7.73
2018-07-28T17:53:56.753Z,10.17
2018-07-28T17:56:27.288Z,8.40
2018-07-28T17:58:57.778Z,7.90
2018-07-28T18:01:28.391Z,7.63
2018-07-28T18:03:58.922Z,8.67
2018-07-28T18:06:29.419Z,7.73
2018-07-28T18:09:00.097Z,7.10
2018-07-28T18:11:30.488Z,8.10
2018-07-28T18:14:01.035Z,7.77
2018-07-28T18:16:31.985Z,8.67
2018-07-28T18:19:02.723Z,8.33
2018-07-28T18:21:33.388Z,10.00
2018-07-28T18:24:04.045Z,7.70
2018-07-28T18:26:34.787Z,11.27
2018-07-28T18:29:05.411Z,7.10
2018-07-28T18:31:35.927Z,10.17
2018-07-28T18:34:06.588Z,8.40
2018-07-28T18:36:37.137Z,7.33
2018-07-28T18:39:10.708Z,6.40
2018-07-28T18:41:41.375Z,7.63
2018-07-28T18:44:11.877Z,8.93
2018-07-28T18:46:42.631Z,6.80
2018-07-28T18:49:13.272Z,7.43
2018-07-28T18:51:43.920Z,8.17
2018-07-28T18:54:14.433Z,7.97
2018-07-28T18:56:45.087Z,7.53
2018-07-28T18:59:15.569Z,6.90
2018-07-28T19:01:46.344Z,7.53
2018-07-28T19:04:16.868Z,7.40
2018-07-28T19:06:47.379Z,8.20
2018-07-28T19:09:22.931Z,7.13
2018-07-28T19:11:53.398Z,7.77
2018-07-28T19:14:29.050Z,8.43
2018-07-28T19:16:59.577Z,6.60
2018-07-28T19:19:30.045Z,6.83
2018-07-28T19:22:00.318Z,7.83
2018-07-28T19:24:30.783Z,7.53
2018-07-28T19:27:01.555Z,8.27
2018-07-28T19:29:36.935Z,7.77
2018-07-28T19:32:07.306Z,8.90
2018-07-28T19:34:37.855Z,8.43
2018-07-28T19:37:13.447Z,8.80
2018-07-28T19:39:43.874Z,7.73
2018-07-28T19:42:19.397Z,8.70
2018-07-28T19:44:50.164Z,9.47
2018-07-28T19:47:20.822Z,7.57
2018-07-28T19:49:51.442Z,11.40
2018-07-28T19:52:22.318Z,8.00
2018-07-28T19:54:52.439Z,8.70
2018-07-28T19:57:23.103Z,8.37
2018-07-28T19:59:53.631Z,9.77
2018-07-28T20:02:24.128Z,8.70
2018-07-28T20:04:54.631Z,8.67
2018-07-28T20:07:25.245Z,8.97
2018-07-28T20:09:55.803Z,9.77
2018-07-28T20:12:26.248Z,10.33
2018-07-28T20:14:56.844Z,10.53
2018-07-28T20:17:27.640Z,12.13
2018-07-28T20:19:58.124Z,11.50
2018-07-28T20:22:28.477Z,10.20
2018-07-28T20:24:58.956Z,11.07
2018-07-28T20:27:29.577Z,10.87
2018-07-28T20:30:00.051Z,8.90
2018-07-28T20:32:30.616Z,9.60
2018-07-28T20:35:00.628Z,8.80
2018-07-28T20:37:31.203Z,9.47
2018-07-28T20:40:01.796Z,9.47
2018-07-28T20:42:32.367Z,14.73
2018-07-28T20:45:02.877Z,10.23
2018-07-28T20:47:33.512Z,11.20
2018-07-28T20:50:04.001Z,9.93
2018-07-28T20:52:34.503Z,10.90
2018-07-28T20:55:05.042Z,12.50
2018-07-28T20:57:35.676Z,10.73
2018-07-28T21:00:06.182Z,9.60
2018-07-28T21:02:36.663Z,10.97
2018-07-28T21:05:07.297Z,10.40
2018-07-28T21:07:37.892Z,10.03
2018-07-28T21:10:08.480Z,8.70
2018-07-28T21:12:38.983Z,8.33
2018-07-28T21:15:09.384Z,10.63
2018-07-28T21:17:40.150Z,13.83
2018-07-28T21:20:10.554Z,9.67
2018-07-28T21:22:41.137Z,11.50
2018-07-28T21:25:11.848Z,11.07
2018-07-28T21:27:42.409Z,11.83
2018-07-28T21:30:12.848Z,12.60
2018-07-28T21:32:43.355Z,10.47
2018-07-28T21:35:14.088Z,12.13
2018-07-28T21:37:45.653Z,10.70
2018-07-28T21:40:16.238Z,11.17
2018-07-28T21:42:46.880Z,9.27
2018-07-28T21:45:17.515Z,9.20
2018-07-28T21:47:47.981Z,12.27
2018-07-28T21:50:18.937Z,11.00
2018-07-28T21:52:49.527Z,8.13
2018-07-28T21:55:20.360Z,8.40
2018-07-28T21:57:50.918Z,9.10
2018-07-28T22:00:21.489Z,8.37
2018-07-28T22:02:51.960Z,8.63
2018-07-28T22:05:22.339Z,11.10
2018-07-28T22:07:52.823Z,8.93
2018-07-28T22:10:23.453Z,9.70
2018-07-28T22:12:53.969Z,11.03
2018-07-28T22:15:24.457Z,10.37
2018-07-28T22:17:55.012Z,10.97
2018-07-28T22:20:25.433Z,12.40
2018-07-28T22:22:55.873Z,10.73
2018-07-28T22:25:26.561Z,10.03
2018-07-28T22:27:57.243Z,10.47
2018-07-28T22:30:27.776Z,9.63
2018-07-28T22:32:58.455Z,10.37
2018-07-28T22:35:28.884Z,9.57
2018-07-28T22:37:59.412Z,10.77
2018-07-28T22:40:29.876Z,10.70
2018-07-28T22:43:00.425Z,12.97
2018-07-28T22:45:30.916Z,9.73
2018-07-28T22:48:01.512Z,10.47
2018-07-28T22:50:32.200Z,9.63
2018-07-28T22:53:02.922Z,9.93
2018-07-28T22:55:33.493Z,9.23
2018-07-28T22:58:04.066Z,10.60
2018-07-28T23:00:34.828Z,9.53
2018-07-28T23:03:05.272Z,10.63
2018-07-28T23:05:35.783Z,10.80
2018-07-28T23:08:06.419Z,10.10
2018-07-28T23:10:36.944Z,9.83
2018-07-28T23:13:07.703Z,11.90
2018-07-28T23:15:38.273Z,9.87
2018-07-28T23:18:08.735Z,10.40
2018-07-28T23:20:39.156Z,10.03
2018-07-28T23:23:09.756Z,8.77
2018-07-28T23:25:40.207Z,11.50
2018-07-28T23:28:10.513Z,8.97
2018-07-28T23:30:40.864Z,9.57
2018-07-28T23:33:11.378Z,9.03
2018-07-28T23:35:41.916Z,8.27
2018-07-28T23:38:12.436Z,10.63
2018-07-28T23:40:43.267Z,8.70
2018-07-28T23:43:13.420Z,9.57
2018-07-28T23:45:43.930Z,7.83
2018-07-28T23:48:15.512Z,8.50
2018-07-28T23:50:46.096Z,8.63
2018-07-28T23:53:16.916Z,10.53
2018-07-28T23:55:47.720Z,8.30
2018-07-28T23:58:18.368Z,9.07
